createdAt,value
2022-11-17T00:00:16.602Z,0.00
2022-11-17T00:01:16.561Z,0.00
2022-11-17T00:02:16.580Z,0.00
2022-11-17T00:03:16.604Z,0.00
2022-11-17T00:04:16.509Z,0.00
2022-11-17T00:05:16.490Z,0.00
2022-11-17T00:06:16.483Z,0.00
2022-11-17T00:07:16.496Z,0.00
2022-11-17T00:08:16.522Z,0.00
2022-11-17T00:09:16.435Z,0.00
2022-11-17T00:10:16.407Z,0.00
2022-11-17T00:11:16.385Z,0.00
2022-11-17T00:12:22.039Z,0.00
2022-11-17T00:13:16.380Z,0.00
2022-11-17T00:14:16.398Z,0.00
2022-11-17T00:15:16.318Z,0.00
2022-11-17T00:16:16.301Z,0.00
2022-11-17T00:17:16.291Z,0.00
2022-11-17T00:18:16.268Z,0.00
2022-11-17T00:19:16.260Z,0.00
2022-11-17T00:20:16.232Z,0.00
2022-11-17T00:21:16.216Z,0.00
2022-11-17T00:22:16.192Z,0.00
2022-11-17T00:23:16.178Z,0.00
2022-11-17T00:24:16.193Z,0.00
2022-11-17T00:25:16.145Z,0.00
2022-11-17T00:26:16.143Z,0.00
2022-11-17T00:27:16.107Z,0.00
2022-11-17T00:28:16.098Z,0.00
2022-11-17T00:29:16.080Z,0.00
2022-11-17T00:30:16.109Z,0.00
2022-11-17T00:31:16.045Z,0.00
2022-11-17T00:32:16.034Z,0.00
2022-11-17T00:33:16.013Z,0.00
2022-11-17T00:34:15.986Z,0.00
2022-11-17T00:35:15.970Z,0.00
2022-11-17T00:36:15.974Z,0.00
2022-11-17T00:37:15.936Z,0.00
2022-11-17T00:38:15.919Z,0.00
2022-11-17T00:39:15.899Z,0.00
2022-11-17T00:40:15.910Z,0.00
2022-11-17T00:41:15.923Z,0.00
2022-11-17T00:42:15.846Z,0.00
2022-11-17T00:43:15.873Z,0.00
2022-11-17T00:44:15.832Z,0.00
2022-11-17T00:45:15.797Z,0.00
2022-11-17T00:46:15.782Z,0.00
2022-11-17T00:47:15.762Z,0.00
2022-11-17T00:48:15.742Z,0.00
2022-11-17T00:49:15.726Z,0.00
2022-11-17T00:50:15.702Z,0.00
2022-11-17T00:51:15.690Z,0.00
2022-11-17T00:52:15.701Z,0.00
2022-11-17T00:53:15.716Z,0.00
2022-11-17T00:54:15.635Z,0.00
2022-11-17T00:55:15.670Z,0.00
2022-11-17T00:56:15.676Z,0.00
2022-11-17T00:57:15.586Z,0.00
2022-11-17T00:58:15.570Z,0.00
2022-11-17T00:59:15.558Z,0.00
2022-11-17T01:00:15.531Z,0.00
2022-11-17T01:01:15.595Z,0.00
2022-11-17T01:02:15.509Z,0.00
2022-11-17T01:03:15.488Z,0.00
2022-11-17T01:04:15.487Z,0.00
2022-11-17T01:05:15.447Z,0.00
2022-11-17T01:06:15.435Z,0.00
2022-11-17T01:07:15.498Z,0.00
2022-11-17T01:08:15.391Z,0.00
2022-11-17T01:09:15.382Z,0.00
2022-11-17T01:10:15.376Z,0.00
2022-11-17T01:11:15.459Z,0.00
2022-11-17T01:12:15.406Z,0.00
2022-11-17T01:13:15.308Z,0.00
2022-11-17T01:14:15.290Z,0.00
2022-11-17T01:15:15.276Z,0.00
2022-11-17T01:16:15.250Z,0.00
2022-11-17T01:17:15.250Z,0.00
2022-11-17T01:18:15.229Z,0.00
2022-11-17T01:19:15.253Z,0.00
2022-11-17T01:20:15.186Z,0.00
2022-11-17T01:21:15.163Z,0.00
2022-11-17T01:22:15.150Z,0.00
2022-11-17T01:23:15.133Z,0.00
2022-11-17T01:24:15.143Z,0.00
2022-11-17T01:25:15.110Z,0.00
2022-11-17T01:26:15.089Z,0.00
2022-11-17T01:27:15.089Z,0.00
2022-11-17T01:28:15.042Z,0.00
2022-11-17T01:29:15.025Z,0.00
2022-11-17T01:30:15.008Z,0.00
2022-11-17T01:31:15.033Z,0.00
2022-11-17T01:32:14.978Z,0.00
2022-11-17T01:33:14.967Z,0.00
2022-11-17T01:34:14.943Z,0.00
2022-11-17T01:35:14.924Z,0.00
2022-11-17T01:36:14.960Z,0.00
2022-11-17T01:37:14.885Z,0.00
2022-11-17T01:38:14.892Z,0.00
2022-11-17T01:39:14.855Z,0.00
2022-11-17T01:40:14.834Z,0.00
2022-11-17T01:41:14.825Z,0.00
2022-11-17T01:42:14.826Z,0.00
2022-11-17T01:43:14.782Z,0.00
2022-11-17T01:44:14.838Z,0.00
2022-11-17T01:45:14.754Z,0.00
2022-11-17T01:46:14.739Z,0.00
2022-11-17T01:47:14.719Z,0.00
2022-11-17T01:48:14.697Z,0.00
2022-11-17T01:49:14.677Z,0.00
2022-11-17T01:50:14.659Z,0.00
2022-11-17T01:51:14.669Z,0.00
2022-11-17T01:52:14.644Z,0.00
2022-11-17T01:53:14.632Z,0.00
2022-11-17T01:54:14.592Z,0.00
2022-11-17T01:55:14.573Z,0.00
2022-11-17T01:56:14.562Z,0.00
2022-11-17T01:57:14.540Z,0.00
2022-11-17T01:58:14.554Z,0.00
2022-11-17T01:59:14.508Z,0.00
2022-11-17T02:00:14.488Z,0.00
2022-11-17T02:01:14.538Z,0.00
2022-11-17T02:02:14.450Z,0.00
2022-11-17T02:03:15.103Z,0.00
2022-11-17T02:04:14.410Z,0.00
2022-11-17T02:05:14.403Z,0.00
2022-11-17T02:06:14.379Z,0.00
2022-11-17T02:07:14.437Z,0.00
2022-11-17T02:08:14.341Z,0.00
2022-11-17T02:09:14.356Z,0.00
2022-11-17T02:10:14.309Z,0.00
2022-11-17T02:11:14.318Z,0.00
2022-11-17T02:12:14.272Z,0.00
2022-11-17T02:13:14.262Z,0.00
2022-11-17T02:14:14.292Z,0.00
2022-11-17T02:15:14.226Z,0.00
2022-11-17T02:16:14.220Z,0.00
2022-11-17T02:17:14.653Z,0.00
2022-11-17T02:18:14.170Z,0.00
2022-11-17T02:19:14.153Z,0.00
2022-11-17T02:20:14.136Z,0.00
2022-11-17T02:21:14.113Z,0.00
2022-11-17T02:22:14.102Z,0.00
2022-11-17T02:23:14.076Z,0.00
2022-11-17T02:24:14.069Z,0.00
2022-11-17T02:25:14.077Z,0.00
2022-11-17T02:26:14.055Z,0.00
2022-11-17T02:27:14.015Z,0.00
2022-11-17T02:28:13.993Z,0.00
2022-11-17T02:29:13.998Z,0.00
2022-11-17T02:30:13.969Z,0.00
2022-11-17T02:31:13.943Z,0.00
2022-11-17T02:32:13.924Z,0.00
2022-11-17T02:33:13.906Z,0.00
2022-11-17T02:34:13.887Z,0.00
2022-11-17T02:35:13.865Z,0.00
2022-11-17T02:36:13.912Z,0.00
2022-11-17T02:37:13.838Z,0.00
2022-11-17T02:38:13.837Z,0.00
2022-11-17T02:39:13.796Z,0.00
2022-11-17T02:40:13.796Z,0.00
2022-11-17T02:41:13.759Z,0.00
2022-11-17T02:42:13.805Z,0.00
2022-11-17T02:43:13.727Z,0.00
2022-11-17T02:44:13.711Z,0.00
2022-11-17T02:45:13.714Z,0.00
2022-11-17T02:46:13.689Z,0.00
2022-11-17T02:47:13.654Z,0.00
2022-11-17T02:48:13.649Z,0.00
2022-11-17T02:49:13.623Z,0.00
2022-11-17T02:50:13.605Z,0.00
2022-11-17T02:51:13.587Z,0.00
2022-11-17T02:52:13.568Z,0.00
2022-11-17T02:53:13.582Z,0.00
2022-11-17T02:54:13.537Z,0.00
2022-11-17T02:55:13.521Z,0.00
2022-11-17T02:56:13.525Z,0.00
2022-11-17T02:57:13.482Z,0.00
2022-11-17T02:58:13.464Z,0.00
2022-11-17T02:59:13.511Z,0.00
2022-11-17T03:00:13.434Z,0.00
2022-11-17T03:01:13.470Z,0.00
2022-11-17T03:02:13.453Z,0.00
2022-11-17T03:03:13.378Z,0.00
2022-11-17T03:04:13.379Z,0.00
2022-11-17T03:05:13.390Z,0.00
2022-11-17T03:06:13.350Z,0.00
2022-11-17T03:07:13.349Z,0.00
2022-11-17T03:08:13.285Z,0.00
2022-11-17T03:09:13.299Z,0.00
2022-11-17T03:10:13.253Z,0.00
2022-11-17T03:11:13.239Z,0.00
2022-11-17T03:12:13.217Z,0.00
2022-11-17T03:13:13.197Z,0.00
2022-11-17T03:14:13.182Z,0.00
2022-11-17T03:15:13.192Z,0.00
2022-11-17T03:16:13.147Z,0.00
2022-11-17T03:17:13.172Z,0.00
2022-11-17T03:18:13.115Z,0.00
2022-11-17T03:19:13.092Z,0.00
2022-11-17T03:20:13.086Z,0.00
2022-11-17T03:21:13.078Z,0.00
2022-11-17T03:22:13.047Z,0.00
2022-11-17T03:23:13.034Z,0.00
2022-11-17T03:24:13.003Z,0.00
2022-11-17T03:25:12.984Z,0.00
2022-11-17T03:26:12.984Z,0.00
2022-11-17T03:27:12.950Z,0.00
2022-11-17T03:28:12.937Z,0.00
2022-11-17T03:29:12.915Z,0.00
2022-11-17T03:30:12.913Z,0.00
2022-11-17T03:31:12.879Z,0.00
2022-11-17T03:32:12.873Z,0.00
2022-11-17T03:33:12.845Z,0.00
2022-11-17T03:34:12.827Z,0.00
2022-11-17T03:35:12.860Z,0.00
2022-11-17T03:36:12.790Z,0.00
2022-11-17T03:37:12.774Z,0.00
2022-11-17T03:38:12.757Z,0.00
2022-11-17T03:39:12.739Z,0.00
2022-11-17T03:40:12.726Z,0.00
2022-11-17T03:41:12.754Z,0.00
2022-11-17T03:42:12.685Z,0.00
2022-11-17T03:43:12.667Z,0.00
2022-11-17T03:44:12.658Z,0.00
2022-11-17T03:45:12.631Z,0.00
2022-11-17T03:46:12.616Z,0.00
2022-11-17T03:47:12.601Z,0.00
2022-11-17T03:48:12.584Z,0.00
2022-11-17T03:49:12.579Z,0.00
2022-11-17T03:50:12.544Z,0.00
2022-11-17T03:51:12.581Z,0.00
2022-11-17T03:52:12.508Z,0.00
2022-11-17T03:53:12.487Z,0.00
2022-11-17T03:54:12.473Z,0.00
2022-11-17T03:55:12.502Z,0.00
2022-11-17T03:56:12.439Z,0.00
2022-11-17T03:57:12.447Z,0.00
2022-11-17T03:58:12.427Z,0.00
2022-11-17T03:59:12.392Z,0.00
2022-11-17T04:00:12.374Z,0.00
2022-11-17T04:01:12.357Z,0.00
2022-11-17T04:02:12.359Z,0.00
2022-11-17T04:03:12.348Z,0.00
2022-11-17T04:04:12.297Z,0.00
2022-11-17T04:05:12.278Z,0.00
2022-11-17T04:06:12.260Z,0.00
2022-11-17T04:07:12.282Z,0.00
2022-11-17T04:08:12.301Z,0.00
2022-11-17T04:09:12.262Z,0.00
2022-11-17T04:10:12.187Z,0.00
2022-11-17T04:11:12.176Z,0.00
2022-11-17T04:12:12.178Z,0.00
2022-11-17T04:13:12.140Z,0.00
2022-11-17T04:14:12.118Z,0.00
2022-11-17T04:15:12.185Z,0.00
2022-11-17T04:16:12.081Z,0.00
2022-11-17T04:17:12.088Z,0.00
2022-11-17T04:18:12.062Z,0.00
2022-11-17T04:19:12.027Z,0.00
2022-11-17T04:20:12.015Z,0.00
2022-11-17T04:21:11.994Z,0.00
2022-11-17T04:22:11.990Z,0.00
2022-11-17T04:23:11.962Z,0.00
2022-11-17T04:24:12.018Z,0.00
2022-11-17T04:25:11.932Z,0.00
2022-11-17T04:26:11.911Z,0.00
2022-11-17T04:27:11.897Z,0.00
2022-11-17T04:28:11.896Z,0.00
2022-11-17T04:29:11.860Z,0.00
2022-11-17T04:30:11.878Z,0.00
2022-11-17T04:31:11.856Z,0.00
2022-11-17T04:32:11.826Z,0.00
2022-11-17T04:33:11.778Z,0.00
2022-11-17T04:34:11.784Z,0.00
2022-11-17T04:35:11.753Z,0.00
2022-11-17T04:36:11.782Z,0.00
2022-11-17T04:37:11.708Z,0.00
2022-11-17T04:38:11.758Z,0.00
2022-11-17T04:39:11.704Z,0.00
2022-11-17T04:40:11.756Z,0.00
2022-11-17T04:41:11.879Z,0.00
2022-11-17T04:42:11.625Z,0.00
2022-11-17T04:43:11.615Z,0.00
2022-11-17T04:44:11.637Z,0.00
2022-11-17T04:45:11.572Z,0.00
2022-11-17T04:46:11.576Z,0.00
2022-11-17T04:47:11.535Z,0.00
2022-11-17T04:48:11.518Z,0.00
2022-11-17T04:49:11.509Z,0.00
2022-11-17T04:50:11.549Z,0.00
2022-11-17T04:51:11.460Z,0.00
2022-11-17T04:52:11.466Z,0.00
2022-11-17T04:53:11.427Z,0.00
2022-11-17T04:54:11.416Z,0.00
2022-11-17T04:55:11.401Z,0.00
2022-11-17T04:56:11.499Z,0.00
2022-11-17T04:57:12.091Z,0.00
2022-11-17T04:58:11.362Z,0.00
2022-11-17T04:59:11.321Z,0.00
2022-11-17T05:00:11.315Z,0.00
2022-11-17T05:01:11.282Z,0.00
2022-11-17T05:02:11.359Z,0.00
2022-11-17T05:03:11.248Z,0.00
2022-11-17T05:04:11.230Z,0.00
2022-11-17T05:05:11.211Z,0.00
2022-11-17T05:06:11.196Z,0.00
2022-11-17T05:07:11.261Z,0.00
2022-11-17T05:08:11.163Z,0.00
2022-11-17T05:09:11.145Z,0.00
2022-11-17T05:10:12.125Z,0.00
2022-11-17T05:11:11.136Z,0.00
2022-11-17T05:12:11.159Z,0.00
2022-11-17T05:13:11.097Z,0.00
2022-11-17T05:14:11.059Z,0.00
2022-11-17T05:15:11.045Z,0.00
2022-11-17T05:16:11.019Z,0.00
2022-11-17T05:17:11.886Z,0.00
2022-11-17T05:18:11.012Z,0.00
2022-11-17T05:19:10.960Z,0.00
2022-11-17T05:20:10.964Z,0.00
2022-11-17T05:21:10.930Z,0.00
2022-11-17T05:22:10.933Z,0.00
2022-11-17T05:23:10.912Z,0.00
2022-11-17T05:24:10.904Z,0.00
2022-11-17T05:25:10.866Z,0.00
2022-11-17T05:26:10.838Z,0.00
2022-11-17T05:27:10.888Z,0.00
2022-11-17T05:28:10.927Z,0.00
2022-11-17T05:29:10.792Z,0.00
2022-11-17T05:30:10.760Z,0.00
2022-11-17T05:31:10.767Z,0.00
2022-11-17T05:32:10.727Z,0.00
2022-11-17T05:33:10.710Z,0.00
2022-11-17T05:34:10.707Z,0.00
2022-11-17T05:35:10.688Z,0.00
2022-11-17T05:36:10.666Z,0.00
2022-11-17T05:37:10.635Z,0.00
2022-11-17T05:38:10.622Z,0.00
2022-11-17T05:39:10.662Z,0.00
2022-11-17T05:40:10.585Z,0.00
2022-11-17T05:41:10.568Z,0.00
2022-11-17T05:42:10.558Z,0.00
2022-11-17T05:43:10.532Z,0.00
2022-11-17T05:44:10.622Z,0.00
2022-11-17T05:45:10.521Z,0.00
2022-11-17T05:46:10.501Z,0.00
2022-11-17T05:47:10.454Z,0.00
2022-11-17T05:48:10.443Z,0.00
2022-11-17T05:49:10.429Z,0.00
2022-11-17T05:50:10.439Z,0.00
2022-11-17T05:51:10.385Z,0.00
2022-11-17T05:52:10.377Z,0.00
2022-11-17T05:53:10.372Z,0.00
2022-11-17T05:54:10.333Z,0.00
2022-11-17T05:55:10.343Z,0.00
2022-11-17T05:56:10.332Z,0.00
2022-11-17T05:57:10.277Z,0.00
2022-11-17T05:58:10.270Z,0.00
2022-11-17T05:59:10.301Z,0.00
2022-11-17T06:00:10.329Z,0.00
2022-11-17T06:01:10.203Z,0.00
2022-11-17T06:02:10.203Z,0.00
2022-11-17T06:03:10.194Z,0.00
2022-11-17T06:04:10.209Z,0.00
2022-11-17T06:05:12.296Z,0.00
2022-11-17T06:06:10.117Z,0.00
2022-11-17T06:07:10.129Z,0.00
2022-11-17T06:08:10.076Z,0.00
2022-11-17T06:09:10.058Z,0.00
2022-11-17T06:10:10.041Z,0.00
2022-11-17T06:11:10.074Z,0.00
2022-11-17T06:12:10.038Z,0.00
2022-11-17T06:13:10.005Z,0.00
2022-11-17T06:14:09.971Z,0.00
2022-11-17T06:15:09.949Z,0.00
2022-11-17T06:16:10.011Z,0.00
2022-11-17T06:17:09.913Z,0.00
2022-11-17T06:18:09.895Z,0.00
2022-11-17T06:19:09.874Z,0.00
2022-11-17T06:20:09.859Z,0.00
2022-11-17T06:21:09.844Z,0.00
2022-11-17T06:22:12.794Z,0.00
2022-11-17T06:23:09.808Z,0.00
2022-11-17T06:24:09.794Z,0.00
2022-11-17T06:25:09.789Z,0.00
2022-11-17T06:26:09.751Z,0.00
2022-11-17T06:27:09.750Z,0.00
2022-11-17T06:28:09.742Z,0.00
2022-11-17T06:29:09.698Z,0.00
2022-11-17T06:30:09.694Z,0.00
2022-11-17T06:31:09.665Z,0.00
2022-11-17T06:32:09.718Z,0.00
2022-11-17T06:33:09.649Z,0.00
2022-11-17T06:34:09.607Z,0.00
2022-11-17T06:35:09.599Z,0.00
2022-11-17T06:36:09.571Z,0.00
2022-11-17T06:37:09.578Z,0.00
2022-11-17T06:38:09.556Z,0.00
2022-11-17T06:39:09.517Z,0.00
2022-11-17T06:40:09.492Z,0.00
2022-11-17T06:41:12.030Z,0.00
2022-11-17T06:42:09.481Z,0.00
2022-11-17T06:43:09.465Z,0.00
2022-11-17T06:44:09.432Z,0.00
2022-11-17T06:45:09.416Z,0.00
2022-11-17T06:46:09.412Z,0.00
2022-11-17T06:47:09.372Z,0.00
2022-11-17T06:48:09.359Z,0.00
2022-11-17T06:49:09.336Z,0.00
2022-11-17T06:50:09.312Z,0.00
2022-11-17T06:51:09.325Z,0.00
2022-11-17T06:52:09.314Z,0.00
2022-11-17T06:53:09.296Z,0.00
2022-11-17T06:54:09.288Z,0.00
2022-11-17T06:55:09.273Z,0.00
2022-11-17T06:56:09.287Z,0.00
2022-11-17T06:57:09.220Z,0.00
2022-11-17T06:58:09.189Z,0.00
2022-11-17T06:59:09.217Z,0.00
2022-11-17T07:00:09.147Z,0.00
2022-11-17T07:01:09.213Z,0.00
2022-11-17T07:02:09.136Z,0.00
2022-11-17T07:03:09.114Z,0.00
2022-11-17T07:04:09.074Z,0.00
2022-11-17T07:05:09.101Z,0.00
2022-11-17T07:06:09.041Z,0.00
2022-11-17T07:07:09.087Z,0.00
2022-11-17T07:08:09.012Z,0.00
2022-11-17T07:09:09.009Z,0.00
2022-11-17T07:10:09.023Z,0.00
2022-11-17T07:11:08.973Z,0.00
2022-11-17T07:12:08.941Z,0.00
2022-11-17T07:13:08.929Z,0.00
2022-11-17T07:14:08.895Z,0.00
2022-11-17T07:15:08.893Z,0.00
2022-11-17T07:16:08.884Z,0.00
2022-11-17T07:17:08.903Z,0.00
2022-11-17T07:18:08.825Z,0.00
2022-11-17T07:19:08.817Z,0.00
2022-11-17T07:20:08.852Z,0.00
2022-11-17T07:21:08.821Z,0.00
2022-11-17T07:22:08.746Z,0.00
2022-11-17T07:23:08.744Z,0.00
2022-11-17T07:24:08.717Z,0.00
2022-11-17T07:25:08.710Z,0.00
2022-11-17T07:26:08.674Z,0.00
2022-11-17T07:27:08.672Z,0.00
2022-11-17T07:28:08.645Z,0.00
2022-11-17T07:29:08.634Z,0.00
2022-11-17T07:30:08.599Z,0.00
2022-11-17T07:31:08.597Z,0.00
2022-11-17T07:32:08.590Z,0.00
2022-11-17T07:33:08.562Z,0.00
2022-11-17T07:34:08.542Z,0.00
2022-11-17T07:35:08.523Z,0.00
2022-11-17T07:36:08.565Z,0.00
2022-11-17T07:37:08.549Z,0.00
2022-11-17T07:38:08.451Z,0.00
2022-11-17T07:39:08.456Z,0.00
2022-11-17T07:40:08.434Z,0.00
2022-11-17T07:41:08.425Z,5.63
2022-11-17T07:42:08.423Z,0.00
2022-11-17T07:43:08.407Z,0.00
2022-11-17T07:44:08.355Z,0.00
2022-11-17T07:45:08.341Z,0.00
2022-11-17T07:46:08.376Z,0.00
2022-11-17T07:47:08.319Z,0.00
2022-11-17T07:48:08.282Z,0.00
2022-11-17T07:49:08.275Z,0.00
2022-11-17T07:50:08.246Z,0.00
2022-11-17T07:51:08.231Z,0.00
2022-11-17T07:52:08.226Z,0.00
2022-11-17T07:53:08.193Z,0.00
2022-11-17T07:54:08.161Z,0.00
2022-11-17T07:55:08.184Z,0.00
2022-11-17T07:56:08.148Z,0.00
2022-11-17T07:57:08.121Z,0.00
2022-11-17T07:58:08.118Z,0.00
2022-11-17T07:59:08.086Z,0.00
2022-11-17T08:00:08.055Z,0.00
2022-11-17T08:01:08.174Z,0.00
2022-11-17T08:02:08.057Z,0.00
2022-11-17T08:03:08.031Z,5.63
2022-11-17T08:04:08.129Z,0.00
2022-11-17T08:05:07.997Z,0.00
2022-11-17T08:06:07.943Z,0.00
2022-11-17T08:07:07.987Z,0.00
2022-11-17T08:08:07.916Z,0.00
2022-11-17T08:09:07.905Z,5.63
2022-11-17T08:10:07.871Z,5.63
2022-11-17T08:11:07.873Z,5.63
2022-11-17T08:12:07.870Z,5.63
2022-11-17T08:13:07.866Z,5.63
2022-11-17T08:14:07.799Z,5.63
2022-11-17T08:15:07.848Z,5.63
2022-11-17T08:16:07.763Z,5.63
2022-11-17T08:17:07.762Z,5.63
2022-11-17T08:18:07.726Z,5.63
2022-11-17T08:19:07.732Z,11.25
2022-11-17T08:20:07.686Z,11.25
2022-11-17T08:21:07.692Z,11.25
2022-11-17T08:22:07.656Z,11.25
2022-11-17T08:23:07.656Z,11.25
2022-11-17T08:24:07.614Z,5.63
2022-11-17T08:25:07.614Z,11.25
2022-11-17T08:26:07.761Z,11.25
2022-11-17T08:27:07.610Z,11.25
2022-11-17T08:28:07.542Z,11.25
2022-11-17T08:29:07.555Z,11.25
2022-11-17T08:30:07.514Z,11.25
2022-11-17T08:31:07.769Z,11.25
2022-11-17T08:32:07.526Z,5.63
2022-11-17T08:33:07.467Z,5.63
2022-11-17T08:34:07.459Z,5.63
2022-11-17T08:35:07.520Z,11.25
2022-11-17T08:36:07.440Z,5.63
2022-11-17T08:37:07.396Z,5.63
2022-11-17T08:38:07.390Z,5.63
2022-11-17T08:39:07.360Z,5.63
2022-11-17T08:40:07.328Z,5.63
2022-11-17T08:41:07.326Z,5.63
2022-11-17T08:42:07.291Z,5.63
2022-11-17T08:43:07.343Z,16.88
2022-11-17T08:44:07.269Z,11.25
2022-11-17T08:45:07.252Z,11.25
2022-11-17T08:46:07.278Z,11.25
2022-11-17T08:47:07.245Z,11.25
2022-11-17T08:48:07.180Z,5.63
2022-11-17T08:49:07.222Z,11.25
2022-11-17T08:50:07.165Z,11.25
2022-11-17T08:51:07.144Z,11.25
2022-11-17T08:52:07.110Z,11.25
2022-11-17T08:53:07.130Z,16.88
2022-11-17T08:54:07.122Z,16.88
2022-11-17T08:55:07.125Z,16.88
2022-11-17T08:56:07.038Z,16.88
2022-11-17T08:57:07.088Z,11.25
2022-11-17T08:58:07.003Z,11.25
2022-11-17T08:59:07.058Z,16.88
2022-11-17T09:00:06.999Z,16.88
2022-11-17T09:01:07.043Z,16.88
2022-11-17T09:02:06.937Z,16.88
2022-11-17T09:03:07.002Z,16.88
2022-11-17T09:04:06.897Z,16.88
2022-11-17T09:05:06.882Z,16.88
2022-11-17T09:06:06.909Z,22.50
2022-11-17T09:07:06.884Z,16.88
2022-11-17T09:08:30.218Z,11.25
2022-11-17T09:09:06.836Z,11.25
2022-11-17T09:10:06.799Z,16.88
2022-11-17T09:11:06.771Z,16.88
2022-11-17T09:12:06.764Z,16.88
2022-11-17T09:13:06.964Z,11.25
2022-11-17T09:14:06.717Z,11.25
2022-11-17T09:15:06.727Z,11.25
2022-11-17T09:16:06.665Z,11.25
2022-11-17T09:17:06.662Z,16.88
2022-11-17T09:18:06.626Z,16.88
2022-11-17T09:19:06.626Z,11.25
2022-11-17T09:20:06.590Z,16.88
2022-11-17T09:21:06.644Z,11.25
2022-11-17T09:22:06.564Z,11.25
2022-11-17T09:23:06.587Z,11.25
2022-11-17T09:24:06.525Z,11.25
2022-11-17T09:25:11.887Z,11.25
2022-11-17T09:26:06.484Z,11.25
2022-11-17T09:27:06.463Z,11.25
2022-11-17T09:28:06.492Z,11.25
2022-11-17T09:29:06.446Z,11.25
2022-11-17T09:30:06.413Z,16.88
2022-11-17T09:31:06.516Z,16.88
2022-11-17T09:32:06.376Z,16.88
2022-11-17T09:33:06.407Z,11.25
2022-11-17T09:34:06.537Z,11.25
2022-11-17T09:35:06.341Z,5.63
2022-11-17T09:36:06.359Z,11.25
2022-11-17T09:37:06.303Z,11.25
2022-11-17T09:38:06.289Z,11.25
2022-11-17T09:39:06.391Z,11.25
2022-11-17T09:40:06.234Z,16.88
2022-11-17T09:41:06.296Z,11.25
2022-11-17T09:42:06.196Z,11.25
2022-11-17T09:43:06.241Z,11.25
2022-11-17T09:44:06.236Z,11.25
2022-11-17T09:45:06.159Z,11.25
2022-11-17T09:46:07.737Z,11.25
2022-11-17T09:47:06.126Z,11.25
2022-11-17T09:48:38.949Z,11.25
2022-11-17T09:49:06.112Z,11.25
2022-11-17T09:50:06.053Z,11.25
2022-11-17T09:51:06.055Z,11.25
2022-11-17T09:52:06.017Z,11.25
2022-11-17T09:53:06.017Z,22.50
2022-11-17T09:54:05.984Z,16.88
2022-11-17T09:55:06.033Z,22.50
2022-11-17T09:56:05.947Z,16.88
2022-11-17T09:57:05.945Z,16.88
2022-11-17T09:58:05.912Z,16.88
2022-11-17T09:59:05.920Z,11.25
2022-11-17T10:00:05.924Z,16.88
2022-11-17T10:01:05.873Z,16.88
2022-11-17T10:02:05.930Z,16.88
2022-11-17T10:03:05.932Z,22.50
2022-11-17T10:04:05.808Z,22.50
2022-11-17T10:05:05.801Z,22.50
2022-11-17T10:06:05.792Z,28.13
2022-11-17T10:07:05.794Z,22.50
2022-11-17T10:08:05.732Z,28.13
2022-11-17T10:09:05.789Z,22.50
2022-11-17T10:10:05.718Z,22.50
2022-11-17T10:11:05.817Z,22.50
2022-11-17T10:12:05.662Z,22.50
2022-11-17T10:13:05.683Z,28.13
2022-11-17T10:14:05.642Z,28.13
2022-11-17T10:15:05.699Z,28.13
2022-11-17T10:16:05.682Z,28.13
2022-11-17T10:17:05.587Z,28.13
2022-11-17T10:18:05.617Z,33.75
2022-11-17T10:19:05.573Z,39.38
2022-11-17T10:20:05.522Z,39.38
2022-11-17T10:21:05.519Z,45.00
2022-11-17T10:22:06.417Z,45.00
2022-11-17T10:23:05.498Z,39.38
2022-11-17T10:24:05.476Z,33.75
2022-11-17T10:25:05.473Z,33.75
2022-11-17T10:26:05.411Z,33.75
2022-11-17T10:27:05.412Z,39.38
2022-11-17T10:28:05.381Z,33.75
2022-11-17T10:29:08.542Z,28.13
2022-11-17T10:30:05.341Z,28.13
2022-11-17T10:31:05.379Z,39.38
2022-11-17T10:32:05.323Z,33.75
2022-11-17T10:33:05.415Z,28.13
2022-11-17T10:34:05.270Z,28.13
2022-11-17T10:35:05.272Z,22.50
2022-11-17T10:36:05.267Z,22.50
2022-11-17T10:37:05.237Z,22.50
2022-11-17T10:38:05.229Z,22.50
2022-11-17T10:39:05.328Z,22.50
2022-11-17T10:40:05.165Z,22.50
2022-11-17T10:41:05.212Z,16.88
2022-11-17T10:42:05.132Z,22.50
2022-11-17T10:43:05.126Z,22.50
2022-11-17T10:44:05.094Z,22.50
2022-11-17T10:45:05.092Z,22.50
2022-11-17T10:46:05.092Z,16.88
2022-11-17T10:47:05.059Z,16.88
2022-11-17T10:48:05.044Z,16.88
2022-11-17T10:49:05.137Z,16.88
2022-11-17T10:50:04.989Z,16.88
2022-11-17T10:51:05.133Z,16.88
2022-11-17T10:52:05.008Z,11.25
2022-11-17T10:53:07.620Z,11.25
2022-11-17T10:54:04.943Z,11.25
2022-11-17T10:55:05.047Z,16.88
2022-11-17T10:56:04.928Z,11.25
2022-11-17T10:57:04.868Z,16.88
2022-11-17T10:58:04.897Z,16.88
2022-11-17T10:59:04.847Z,16.88
2022-11-17T11:00:04.833Z,11.25
2022-11-17T11:01:04.865Z,11.25
2022-11-17T11:02:04.790Z,11.25
2022-11-17T11:03:04.767Z,11.25
2022-11-17T11:04:04.787Z,11.25
2022-11-17T11:05:04.731Z,11.25
2022-11-17T11:06:04.724Z,11.25
2022-11-17T11:07:04.725Z,11.25
2022-11-17T11:08:04.726Z,11.25
2022-11-17T11:09:04.653Z,11.25
2022-11-17T11:10:04.656Z,11.25
2022-11-17T11:11:04.620Z,11.25
2022-11-17T11:12:04.615Z,11.25
2022-11-17T11:13:04.612Z,16.88
2022-11-17T11:14:04.680Z,11.25
2022-11-17T11:15:04.656Z,11.25
2022-11-17T11:16:04.704Z,5.63
2022-11-17T11:17:04.936Z,5.63
2022-11-17T11:18:04.769Z,5.63
2022-11-17T11:19:04.578Z,5.63
2022-11-17T11:20:04.549Z,11.25
2022-11-17T11:21:04.798Z,16.88
2022-11-17T11:22:04.519Z,16.88
2022-11-17T11:23:04.505Z,16.88
2022-11-17T11:24:04.481Z,22.50
2022-11-17T11:25:04.411Z,28.13
2022-11-17T11:26:04.516Z,33.75
2022-11-17T11:27:04.453Z,39.38
2022-11-17T11:28:04.399Z,28.13
2022-11-17T11:29:04.373Z,28.13
2022-11-17T11:30:04.381Z,22.50
2022-11-17T11:31:04.361Z,16.88
2022-11-17T11:32:04.400Z,22.50
2022-11-17T11:33:04.285Z,22.50
2022-11-17T11:34:04.314Z,22.50
2022-11-17T11:35:04.281Z,28.13
2022-11-17T11:36:04.265Z,33.75
2022-11-17T11:37:04.240Z,39.38
2022-11-17T11:38:04.273Z,45.00
2022-11-17T11:39:04.207Z,39.38
2022-11-17T11:40:04.133Z,33.75
2022-11-17T11:41:04.171Z,39.38
2022-11-17T11:42:07.894Z,39.38
2022-11-17T11:43:04.101Z,45.00
2022-11-17T11:44:04.135Z,50.63
2022-11-17T11:45:04.088Z,50.63
2022-11-17T11:46:04.018Z,50.63
2022-11-17T11:47:04.044Z,50.63
2022-11-17T11:48:03.989Z,50.63
2022-11-17T11:49:03.978Z,61.88
2022-11-17T11:50:03.947Z,56.25
2022-11-17T11:51:03.917Z,50.63
2022-11-17T11:52:04.008Z,45.00
2022-11-17T11:53:03.879Z,45.00
2022-11-17T11:54:03.933Z,45.00
2022-11-17T11:55:03.863Z,50.63
2022-11-17T11:56:03.850Z,56.25
2022-11-17T11:57:03.826Z,50.63
2022-11-17T11:58:03.813Z,50.63
2022-11-17T11:59:03.787Z,45.00
2022-11-17T12:00:04.910Z,39.38
2022-11-17T12:01:03.742Z,33.75
2022-11-17T12:02:03.816Z,39.38
2022-11-17T12:03:03.733Z,33.75
2022-11-17T12:04:03.706Z,33.75
2022-11-17T12:05:03.904Z,45.00
2022-11-17T12:06:03.676Z,56.25
2022-11-17T12:07:03.663Z,56.25
2022-11-17T12:08:10.144Z,56.25
2022-11-17T12:09:03.606Z,50.63
2022-11-17T12:10:03.628Z,45.00
2022-11-17T12:11:03.835Z,45.00
2022-11-17T12:12:03.565Z,50.63
2022-11-17T12:13:03.534Z,50.63
2022-11-17T12:14:03.532Z,39.38
2022-11-17T12:15:03.560Z,45.00
2022-11-17T12:16:03.519Z,39.38
2022-11-17T12:17:03.468Z,39.38
2022-11-17T12:18:03.470Z,33.75
2022-11-17T12:19:03.434Z,33.75
2022-11-17T12:20:09.275Z,28.13
2022-11-17T12:21:03.428Z,28.13
2022-11-17T12:22:03.394Z,22.50
2022-11-17T12:23:03.388Z,22.50
2022-11-17T12:24:03.360Z,22.50
2022-11-17T12:25:03.334Z,22.50
2022-11-17T12:26:03.526Z,22.50
2022-11-17T12:27:03.301Z,22.50
2022-11-17T12:28:03.292Z,22.50
2022-11-17T12:29:03.259Z,22.50
2022-11-17T12:30:03.258Z,28.13
2022-11-17T12:31:09.427Z,33.75
2022-11-17T12:32:03.264Z,39.38
2022-11-17T12:33:03.198Z,45.00
2022-11-17T12:34:03.195Z,45.00
2022-11-17T12:35:03.158Z,50.63
2022-11-17T12:36:03.157Z,45.00
2022-11-17T12:37:03.202Z,39.38
2022-11-17T12:38:03.117Z,28.13
2022-11-17T12:39:03.092Z,28.13
2022-11-17T12:40:03.086Z,22.50
2022-11-17T12:41:03.066Z,22.50
2022-11-17T12:42:03.111Z,22.50
2022-11-17T12:43:03.053Z,28.13
2022-11-17T12:44:03.015Z,33.75
2022-11-17T12:45:03.010Z,39.38
2022-11-17T12:46:02.982Z,39.38
2022-11-17T12:47:02.948Z,39.38
2022-11-17T12:48:31.909Z,39.38
2022-11-17T12:49:02.970Z,39.38
2022-11-17T12:50:03.035Z,39.38
2022-11-17T12:51:04.983Z,39.38
2022-11-17T12:52:02.892Z,39.38
2022-11-17T12:53:02.853Z,39.38
2022-11-17T12:54:02.885Z,45.00
2022-11-17T12:55:03.122Z,39.38
2022-11-17T12:56:02.834Z,33.75
2022-11-17T12:57:02.776Z,33.75
2022-11-17T12:58:07.589Z,33.75
2022-11-17T12:59:02.742Z,45.00
2022-11-17T13:00:02.744Z,45.00
2022-11-17T13:01:02.821Z,45.00
2022-11-17T13:02:02.715Z,45.00
2022-11-17T13:03:02.676Z,39.38
2022-11-17T13:04:02.711Z,33.75
2022-11-17T13:05:02.644Z,39.38
2022-11-17T13:06:33.301Z,33.75
2022-11-17T13:07:02.719Z,33.75
2022-11-17T13:08:02.704Z,33.75
2022-11-17T13:09:02.781Z,33.75